sensor_id;sensor_type;location;lat;lon;timestamp;pressure;altitude;pressure_sealevel;temperature;humidity
60974;BME280;46846;51.528;5.076;2023-04-21T00:01:40;100970.38;;;8.54;65.34
60974;BME280;46846;51.528;5.076;2023-04-21T00:04:05;100971.31;;;8.51;65.18
60974;BME280;46846;51.528;5.076;2023-04-21T00:06:31;100966.97;;;8.47;65.30
60974;BME280;46846;51.528;5.076;2023-04-21T00:08:57;100963.47;;;8.45;65.33
60974;BME280;46846;51.528;5.076;2023-04-21T00:11:22;100973.13;;;8.47;65.63
60974;BME280;46846;51.528;5.076;2023-04-21T00:13:47;100965.22;;;8.46;65.43
60974;BME280;46846;51.528;5.076;2023-04-21T00:16:13;100962.59;;;8.46;65.40
60974;BME280;46846;51.528;5.076;2023-04-21T00:18:39;100956.47;;;8.42;65.50
60974;BME280;46846;51.528;5.076;2023-04-21T00:21:05;100955.47;;;8.46;65.46
60974;BME280;46846;51.528;5.076;2023-04-21T00:23:30;100955.41;;;8.51;65.78
60974;BME280;46846;51.528;5.076;2023-04-21T00:25:55;100954.63;;;8.46;65.41
60974;BME280;46846;51.528;5.076;2023-04-21T00:28:20;100949.41;;;8.41;65.50
60974;BME280;46846;51.528;5.076;2023-04-21T00:30:46;100950.25;;;8.43;65.75
60974;BME280;46846;51.528;5.076;2023-04-21T00:33:11;100940.59;;;8.41;65.89
60974;BME280;46846;51.528;5.076;2023-04-21T00:35:36;100943.28;;;8.38;65.73
60974;BME280;46846;51.528;5.076;2023-04-21T00:38:01;100942.34;;;8.40;66.09
60974;BME280;46846;51.528;5.076;2023-04-21T00:40:27;100936.19;;;8.40;65.96
60974;BME280;46846;51.528;5.076;2023-04-21T00:42:52;100928.13;;;8.44;65.81
60974;BME280;46846;51.528;5.076;2023-04-21T00:45:18;100938.63;;;8.49;66.86
60974;BME280;46846;51.528;5.076;2023-04-21T00:47:43;100940.38;;;8.48;65.80
60974;BME280;46846;51.528;5.076;2023-04-21T00:50:09;100938.66;;;8.47;66.97
60974;BME280;46846;51.528;5.076;2023-04-21T00:52:35;100932.69;;;8.38;65.94
60974;BME280;46846;51.528;5.076;2023-04-21T00:55:01;100931.72;;;8.42;66.93
60974;BME280;46846;51.528;5.076;2023-04-21T00:57:26;100930.91;;;8.40;65.81
60974;BME280;46846;51.528;5.076;2023-04-21T00:59:52;100944.22;;;8.37;66.57
60974;BME280;46846;51.528;5.076;2023-04-21T01:02:18;100944.09;;;8.41;67.63
60974;BME280;46846;51.528;5.076;2023-04-21T01:04:43;100937.13;;;8.39;66.45
60974;BME280;46846;51.528;5.076;2023-04-21T01:07:09;100932.75;;;8.36;66.25
60974;BME280;46846;51.528;5.076;2023-04-21T01:09:35;100928.38;;;8.33;66.38
60974;BME280;46846;51.528;5.076;2023-04-21T01:12:04;100933.75;;;8.30;66.27
60974;BME280;46846;51.528;5.076;2023-04-21T01:14:30;100936.38;;;8.32;66.11
60974;BME280;46846;51.528;5.076;2023-04-21T01:16:55;100939.97;;;8.29;66.25
60974;BME280;46846;51.528;5.076;2023-04-21T01:19:21;100930.28;;;8.27;66.64
60974;BME280;46846;51.528;5.076;2023-04-21T01:21:47;100926.69;;;8.29;66.33
60974;BME280;46846;51.528;5.076;2023-04-21T01:24:13;100925.88;;;8.27;66.30
60974;BME280;46846;51.528;5.076;2023-04-21T01:26:38;100920.69;;;8.23;66.34
60974;BME280;46846;51.528;5.076;2023-04-21T01:29:03;100920.59;;;8.26;66.45
60974;BME280;46846;51.528;5.076;2023-04-21T01:31:28;100907.44;;;8.23;66.34
60974;BME280;46846;51.528;5.076;2023-04-21T01:33:54;100910.09;;;8.23;66.53
60974;BME280;46846;51.528;5.076;2023-04-21T01:36:19;100908.13;;;8.31;67.01
60974;BME280;46846;51.528;5.076;2023-04-21T01:38:44;100902.94;;;8.26;66.69
60974;BME280;46846;51.528;5.076;2023-04-21T01:41:10;100895.03;;;8.23;66.72
60974;BME280;46846;51.528;5.076;2023-04-21T01:43:35;100899.59;;;8.18;66.82
60974;BME280;46846;51.528;5.076;2023-04-21T01:46:01;100899.53;;;8.19;66.88
60974;BME280;46846;51.528;5.076;2023-04-21T01:48:26;100895.19;;;8.17;66.44
60974;BME280;46846;51.528;5.076;2023-04-21T01:50:52;100893.50;;;8.14;66.62
60974;BME280;46846;51.528;5.076;2023-04-21T01:53:17;100889.94;;;8.14;66.70
60974;BME280;46846;51.528;5.076;2023-04-21T01:55:42;100888.31;;;8.10;67.11
60974;BME280;46846;51.528;5.076;2023-04-21T01:58:07;100879.41;;;8.12;66.57
60974;BME280;46846;51.528;5.076;2023-04-21T02:00:33;100877.63;;;8.13;66.78
60974;BME280;46846;51.528;5.076;2023-04-21T02:02:58;100868.88;;;8.07;66.75
60974;BME280;46846;51.528;5.076;2023-04-21T02:05:23;100861.13;;;8.01;66.75
60974;BME280;46846;51.528;5.076;2023-04-21T02:07:49;100855.75;;;8.03;66.85
60974;BME280;46846;51.528;5.076;2023-04-21T02:10:14;100857.56;;;8.02;67.17
60974;BME280;46846;51.528;5.076;2023-04-21T02:12:40;100853.88;;;8.08;66.91
60974;BME280;46846;51.528;5.076;2023-04-21T02:15:05;100860.88;;;8.11;67.29
60974;BME280;46846;51.528;5.076;2023-04-21T02:17:31;100856.53;;;8.08;66.76
60974;BME280;46846;51.528;5.076;2023-04-21T02:19:56;100848.69;;;8.03;66.74
60974;BME280;46846;51.528;5.076;2023-04-21T02:22:21;100854.91;;;8.02;67.20
60974;BME280;46846;51.528;5.076;2023-04-21T02:24:47;100846.97;;;8.01;67.37
60974;BME280;46846;51.528;5.076;2023-04-21T02:27:12;100850.50;;;8.01;67.08
60974;BME280;46846;51.528;5.076;2023-04-21T02:29:38;100847.81;;;8.03;66.91
60974;BME280;46846;51.528;5.076;2023-04-21T02:32:03;100846.75;;;8.10;67.11
60974;BME280;46846;51.528;5.076;2023-04-21T02:34:28;100841.41;;;8.12;66.88
60974;BME280;46846;51.528;5.076;2023-04-21T02:36:54;100834.63;;;8.00;66.99
60974;BME280;46846;51.528;5.076;2023-04-21T02:39:19;100841.69;;;7.99;67.42
60974;BME280;46846;51.528;5.076;2023-04-21T02:41:44;100835.56;;;7.97;67.01
60974;BME280;46846;51.528;5.076;2023-04-21T02:44:10;100835.66;;;7.94;67.15
60974;BME280;46846;51.528;5.076;2023-04-21T02:46:38;100829.50;;;7.92;66.91
60974;BME280;46846;51.528;5.076;2023-04-21T02:49:03;100832.16;;;7.92;67.15
60974;BME280;46846;51.528;5.076;2023-04-21T02:51:28;100827.78;;;7.89;67.47
60974;BME280;46846;51.528;5.076;2023-04-21T02:53:54;100835.75;;;7.89;66.94
60974;BME280;46846;51.528;5.076;2023-04-21T02:56:19;100838.44;;;7.88;67.35
60974;BME280;46846;51.528;5.076;2023-04-21T02:58:44;100839.38;;;7.87;67.17
60974;BME280;46846;51.528;5.076;2023-04-21T03:01:09;100836.72;;;7.87;67.32
60974;BME280;46846;51.528;5.076;2023-04-21T03:03:35;100831.44;;;7.85;67.30
60974;BME280;46846;51.528;5.076;2023-04-21T03:06:01;100831.34;;;7.90;67.15
60974;BME280;46846;51.528;5.076;2023-04-21T03:08:27;100835.84;;;7.86;67.18
60974;BME280;46846;51.528;5.076;2023-04-21T03:10:52;100832.28;;;7.86;67.27
60974;BME280;46846;51.528;5.076;2023-04-21T03:13:17;100827.09;;;7.83;67.18
60974;BME280;46846;51.528;5.076;2023-04-21T03:15:43;100822.56;;;7.88;67.20
60974;BME280;46846;51.528;5.076;2023-04-21T03:18:09;100827.09;;;7.83;67.17
60974;BME280;46846;51.528;5.076;2023-04-21T03:20:34;100824.53;;;7.79;67.20
60974;BME280;46846;51.528;5.076;2023-04-21T03:22:59;100826.16;;;7.85;67.25
60974;BME280;46846;51.528;5.076;2023-04-21T03:25:24;100819.13;;;7.83;67.41
60974;BME280;46846;51.528;5.076;2023-04-21T03:27:52;100816.56;;;7.79;67.59
60974;BME280;46846;51.528;5.076;2023-04-21T03:30:17;100818.34;;;7.79;67.70
60974;BME280;46846;51.528;5.076;2023-04-21T03:32:42;100808.63;;;7.79;67.36
60974;BME280;46846;51.528;5.076;2023-04-21T03:35:08;100807.72;;;7.80;67.07
60974;BME280;46846;51.528;5.076;2023-04-21T03:37:33;100813.84;;;7.83;67.90
60974;BME280;46846;51.528;5.076;2023-04-21T03:39:58;100819.00;;;7.89;67.66
60974;BME280;46846;51.528;5.076;2023-04-21T03:42:23;100819.03;;;7.86;67.61
60974;BME280;46846;51.528;5.076;2023-04-21T03:44:50;100812.06;;;7.83;67.24
60974;BME280;46846;51.528;5.076;2023-04-21T03:47:15;100812.00;;;7.85;67.30
60974;BME280;46846;51.528;5.076;2023-04-21T03:49:40;100812.91;;;7.84;67.47
60974;BME280;46846;51.528;5.076;2023-04-21T03:52:06;100806.00;;;7.78;67.73
60974;BME280;46846;51.528;5.076;2023-04-21T03:54:31;100805.13;;;7.77;68.66
60974;BME280;46846;51.528;5.076;2023-04-21T03:56:56;100813.03;;;7.79;67.73
60974;BME280;46846;51.528;5.076;2023-04-21T03:59:22;100808.63;;;7.79;67.89
60974;BME280;46846;51.528;5.076;2023-04-21T04:01:47;100819.09;;;7.84;67.49
60974;BME280;46846;51.528;5.076;2023-04-21T04:04:12;100808.63;;;7.79;67.78
60974;BME280;46846;51.528;5.076;2023-04-21T04:06:37;100811.19;;;7.83;68.04
60974;BME280;46846;51.528;5.076;2023-04-21T04:09:03;100819.13;;;7.83;68.04
60974;BME280;46846;51.528;5.076;2023-04-21T04:11:29;100819.16;;;7.81;68.02
60974;BME280;46846;51.528;5.076;2023-04-21T04:13:54;100810.41;;;7.77;67.71
60974;BME280;46846;51.528;5.076;2023-04-21T04:16:19;100820.16;;;7.77;67.97
60974;BME280;46846;51.528;5.076;2023-04-21T04:18:44;100800.81;;;7.73;67.94
60974;BME280;46846;51.528;5.076;2023-04-21T04:21:10;100809.56;;;7.77;67.96
60974;BME280;46846;51.528;5.076;2023-04-21T04:23:35;100801.63;;;7.77;68.16
60974;BME280;46846;51.528;5.076;2023-04-21T04:26:00;100807.84;;;7.74;67.74
60974;BME280;46846;51.528;5.076;2023-04-21T04:28:29;100799.06;;;7.72;68.06
60974;BME280;46846;51.528;5.076;2023-04-21T04:30:54;100801.78;;;7.69;68.18
60974;BME280;46846;51.528;5.076;2023-04-21T04:33:20;100788.50;;;7.71;68.04
60974;BME280;46846;51.528;5.076;2023-04-21T04:35:45;100790.25;;;7.72;68.07
60974;BME280;46846;51.528;5.076;2023-04-21T04:38:11;100792.06;;;7.70;67.89
60974;BME280;46846;51.528;5.076;2023-04-21T04:40:38;100801.84;;;7.68;68.92
60974;BME280;46846;51.528;5.076;2023-04-21T04:43:04;100793.94;;;7.64;67.74
60974;BME280;46846;51.528;5.076;2023-04-21T04:45:30;100796.53;;;7.68;68.79
60974;BME280;46846;51.528;5.076;2023-04-21T04:47:57;100798.31;;;7.65;68.60
60974;BME280;46846;51.528;5.076;2023-04-21T04:50:23;100811.63;;;7.64;68.48
60974;BME280;46846;51.528;5.076;2023-04-21T04:52:48;100819.69;;;7.58;68.57
60974;BME280;46846;51.528;5.076;2023-04-21T04:55:13;100813.63;;;7.52;68.07
60974;BME280;46846;51.528;5.076;2023-04-21T04:57:39;100813.63;;;7.52;68.65
60974;BME280;46846;51.528;5.076;2023-04-21T05:00:05;100813.66;;;7.51;68.37
60974;BME280;46846;51.528;5.076;2023-04-21T05:02:32;100814.53;;;7.51;69.02
60974;BME280;46846;51.528;5.076;2023-04-21T05:04:57;100814.59;;;7.48;68.41
60974;BME280;46846;51.528;5.076;2023-04-21T05:07:22;100812.72;;;7.53;69.29
60974;BME280;46846;51.528;5.076;2023-04-21T05:09:48;100812.72;;;7.53;68.41
60974;BME280;46846;51.528;5.076;2023-04-21T05:12:13;100820.63;;;7.57;68.54
60974;BME280;46846;51.528;5.076;2023-04-21T05:14:38;100821.41;;;7.60;68.94
60974;BME280;46846;51.528;5.076;2023-04-21T05:17:03;100813.59;;;7.54;69.06
60974;BME280;46846;51.528;5.076;2023-04-21T05:19:29;100818.09;;;7.50;68.24
60974;BME280;46846;51.528;5.076;2023-04-21T05:21:57;100826.94;;;7.49;68.09
60974;BME280;46846;51.528;5.076;2023-04-21T05:24:24;100830.47;;;7.48;68.70
60974;BME280;46846;51.528;5.076;2023-04-21T05:26:49;100824.31;;;7.48;69.01
60974;BME280;46846;51.528;5.076;2023-04-21T05:29:15;100824.31;;;7.49;68.30
60974;BME280;46846;51.528;5.076;2023-04-21T05:31:40;100836.41;;;7.60;68.96
60974;BME280;46846;51.528;5.076;2023-04-21T05:34:05;100840.91;;;7.56;68.84
60974;BME280;46846;51.528;5.076;2023-04-21T05:36:30;100841.00;;;7.51;68.47
60974;BME280;46846;51.528;5.076;2023-04-21T05:38:56;100841.94;;;7.50;68.48
60974;BME280;46846;51.528;5.076;2023-04-21T05:41:21;100849.00;;;7.48;68.70
60974;BME280;46846;51.528;5.076;2023-04-21T05:43:49;100851.72;;;7.45;68.66
60974;BME280;46846;51.528;5.076;2023-04-21T05:46:14;100848.31;;;7.40;69.50
60974;BME280;46846;51.528;5.076;2023-04-21T05:48:40;100845.66;;;7.40;69.03
60974;BME280;46846;51.528;5.076;2023-04-21T05:51:08;100848.38;;;7.37;68.65
60974;BME280;46846;51.528;5.076;2023-04-21T05:53:35;100843.00;;;7.40;69.23
60974;BME280;46846;51.528;5.076;2023-04-21T05:56:00;100853.59;;;7.40;69.09
60974;BME280;46846;51.528;5.076;2023-04-21T05:58:25;100858.88;;;7.42;69.37
60974;BME280;46846;51.528;5.076;2023-04-21T06:00:50;100850.81;;;7.46;69.54
60974;BME280;46846;51.528;5.076;2023-04-21T06:03:16;100851.81;;;7.42;69.78
60974;BME280;46846;51.528;5.076;2023-04-21T06:05:41;100854.47;;;7.42;69.65
60974;BME280;46846;51.528;5.076;2023-04-21T06:08:06;100852.63;;;7.44;69.13
60974;BME280;46846;51.528;5.076;2023-04-21T06:10:31;100846.66;;;7.36;69.30
60974;BME280;46846;51.528;5.076;2023-04-21T06:12:57;100845.75;;;7.35;69.42
60974;BME280;46846;51.528;5.076;2023-04-21T06:15:22;100840.50;;;7.34;68.95
60974;BME280;46846;51.528;5.076;2023-04-21T06:17:51;100845.03;;;7.27;68.90
60974;BME280;46846;51.528;5.076;2023-04-21T06:20:16;100841.44;;;7.31;69.31
60974;BME280;46846;51.528;5.076;2023-04-21T06:22:42;100837.09;;;7.27;69.96
60974;BME280;46846;51.528;5.076;2023-04-21T06:25:07;100842.28;;;7.33;69.04
60974;BME280;46846;51.528;5.076;2023-04-21T06:27:32;100843.97;;;7.37;68.97
60974;BME280;46846;51.528;5.076;2023-04-21T06:29:57;100847.56;;;7.35;69.53
60974;BME280;46846;51.528;5.076;2023-04-21T06:32:23;100848.41;;;7.35;69.42
60974;BME280;46846;51.528;5.076;2023-04-21T06:34:48;100851.97;;;7.33;69.57
60974;BME280;46846;51.528;5.076;2023-04-21T06:37:13;100846.69;;;7.33;70.04
60974;BME280;46846;51.528;5.076;2023-04-21T06:39:38;100857.25;;;7.34;69.63
60974;BME280;46846;51.528;5.076;2023-04-21T06:42:04;100849.28;;;7.36;70.16
60974;BME280;46846;51.528;5.076;2023-04-21T06:44:29;100858.84;;;7.43;71.97
60974;BME280;46846;51.528;5.076;2023-04-21T06:46:56;100846.53;;;7.41;69.80
60974;BME280;46846;51.528;5.076;2023-04-21T06:49:21;100847.59;;;7.32;70.04
60974;BME280;46846;51.528;5.076;2023-04-21T06:51:46;100840.56;;;7.31;70.21
60974;BME280;46846;51.528;5.076;2023-04-21T06:54:12;100841.28;;;7.39;70.45
60974;BME280;46846;51.528;5.076;2023-04-21T06:56:37;100835.03;;;7.42;70.49
60974;BME280;46846;51.528;5.076;2023-04-21T06:59:02;100839.72;;;7.30;69.75
60974;BME280;46846;51.528;5.076;2023-04-21T07:01:27;100841.53;;;7.27;70.26
60974;BME280;46846;51.528;5.076;2023-04-21T07:03:53;100849.53;;;7.23;71.13
60974;BME280;46846;51.528;5.076;2023-04-21T07:06:18;100848.56;;;7.28;70.04
60974;BME280;46846;51.528;5.076;2023-04-21T07:08:43;100846.75;;;7.30;70.45
60974;BME280;46846;51.528;5.076;2023-04-21T07:11:09;100843.31;;;7.24;70.52
60974;BME280;46846;51.528;5.076;2023-04-21T07:13:34;100836.25;;;7.27;70.46
60974;BME280;46846;51.528;5.076;2023-04-21T07:15:59;100838.00;;;7.28;70.47
60974;BME280;46846;51.528;5.076;2023-04-21T07:18:25;100840.41;;;7.38;71.27
60974;BME280;46846;51.528;5.076;2023-04-21T07:20:50;100839.47;;;7.41;71.22
60974;BME280;46846;51.528;5.076;2023-04-21T07:23:16;100836.66;;;7.49;71.55
60974;BME280;46846;51.528;5.076;2023-04-21T07:25:41;100841.06;;;7.48;71.18
60974;BME280;46846;51.528;5.076;2023-04-21T07:28:06;100841.94;;;7.50;71.13
60974;BME280;46846;51.528;5.076;2023-04-21T07:30:32;100839.06;;;7.60;72.70
60974;BME280;46846;51.528;5.076;2023-04-21T07:32:57;100840.75;;;7.64;72.56
60974;BME280;46846;51.528;5.076;2023-04-21T07:35:22;100835.28;;;7.70;71.73
60974;BME280;46846;51.528;5.076;2023-04-21T07:37:48;100837.19;;;7.65;71.27
60974;BME280;46846;51.528;5.076;2023-04-21T07:40:13;100836.16;;;7.72;71.88
60974;BME280;46846;51.528;5.076;2023-04-21T07:42:38;100832.38;;;7.83;72.26
60974;BME280;46846;51.528;5.076;2023-04-21T07:45:04;100839.50;;;7.80;73.77
60974;BME280;46846;51.528;5.076;2023-04-21T07:47:29;100836.09;;;7.74;71.58
60974;BME280;46846;51.528;5.076;2023-04-21T07:49:54;100830.56;;;7.85;71.89
60974;BME280;46846;51.528;5.076;2023-04-21T07:52:20;100831.69;;;7.74;71.34
60974;BME280;46846;51.528;5.076;2023-04-21T07:54:45;100836.91;;;7.77;71.06
60974;BME280;46846;51.528;5.076;2023-04-21T07:57:11;100842.97;;;7.83;71.87
60974;BME280;46846;51.528;5.076;2023-04-21T07:59:36;100841.00;;;7.91;72.32
60974;BME280;46846;51.528;5.076;2023-04-21T08:02:01;100833.00;;;7.94;71.08
60974;BME280;46846;51.528;5.076;2023-04-21T08:04:26;100840.19;;;7.89;71.33
60974;BME280;46846;51.528;5.076;2023-04-21T08:06:52;100841.84;;;7.93;70.18
60974;BME280;46846;51.528;5.076;2023-04-21T08:09:17;100836.47;;;7.98;70.19
60974;BME280;46846;51.528;5.076;2023-04-21T08:11:42;100836.22;;;8.09;70.38
60974;BME280;46846;51.528;5.076;2023-04-21T08:14:07;100834.25;;;8.15;71.21
60974;BME280;46846;51.528;5.076;2023-04-21T08:16:35;100835.03;;;8.20;70.80
60974;BME280;46846;51.528;5.076;2023-04-21T08:19:01;100834.94;;;8.24;70.95
60974;BME280;46846;51.528;5.076;2023-04-21T08:21:26;100834.94;;;8.24;70.98
60974;BME280;46846;51.528;5.076;2023-04-21T08:23:51;100837.69;;;8.20;70.27
60974;BME280;46846;51.528;5.076;2023-04-21T08:26:16;100835.88;;;8.21;70.39
60974;BME280;46846;51.528;5.076;2023-04-21T08:28:45;100830.34;;;8.30;69.80
60974;BME280;46846;51.528;5.076;2023-04-21T08:31:13;100832.00;;;8.36;70.00
60974;BME280;46846;51.528;5.076;2023-04-21T08:33:38;100827.41;;;8.43;69.93
60974;BME280;46846;51.528;5.076;2023-04-21T08:36:03;100836.13;;;8.48;70.05
60974;BME280;46846;51.528;5.076;2023-04-21T08:38:29;100839.59;;;8.52;70.26
60974;BME280;46846;51.528;5.076;2023-04-21T08:40:54;100841.16;;;8.59;69.92
60974;BME280;46846;51.528;5.076;2023-04-21T08:43:22;100834.91;;;8.61;69.82
60974;BME280;46846;51.528;5.076;2023-04-21T08:45:48;100831.41;;;8.59;69.57
60974;BME280;46846;51.528;5.076;2023-04-21T08:48:14;100821.59;;;8.63;69.45
60974;BME280;46846;51.528;5.076;2023-04-21T08:50:42;100827.63;;;8.70;69.13
60974;BME280;46846;51.528;5.076;2023-04-21T08:53:09;100830.06;;;8.78;69.15
60974;BME280;46846;51.528;5.076;2023-04-21T08:55:35;100823.72;;;8.83;69.17
60974;BME280;46846;51.528;5.076;2023-04-21T08:58:02;100828.03;;;8.87;68.78
60974;BME280;46846;51.528;5.076;2023-04-21T09:00:28;100825.28;;;8.91;69.07
60974;BME280;46846;51.528;5.076;2023-04-21T09:02:57;100815.34;;;8.99;68.37
60974;BME280;46846;51.528;5.076;2023-04-21T09:05:23;100809.13;;;9.00;68.91
60974;BME280;46846;51.528;5.076;2023-04-21T09:07:49;100816.94;;;9.05;68.97
60974;BME280;46846;51.528;5.076;2023-04-21T09:10:14;100807.97;;;9.09;69.22
60974;BME280;46846;51.528;5.076;2023-04-21T09:12:48;100805.19;;;9.13;69.54
60974;BME280;46846;51.528;5.076;2023-04-21T09:15:14;100804.97;;;9.21;69.82
60974;BME280;46846;51.528;5.076;2023-04-21T09:17:39;100811.06;;;9.25;70.23
60974;BME280;46846;51.528;5.076;2023-04-21T09:20:15;100803.91;;;9.27;69.74
60974;BME280;46846;51.528;5.076;2023-04-21T09:22:41;100795.78;;;9.32;70.10
60974;BME280;46846;51.528;5.076;2023-04-21T09:25:07;100799.22;;;9.35;70.30
60974;BME280;46846;51.528;5.076;2023-04-21T09:27:34;100803.53;;;9.39;68.24
60974;BME280;46846;51.528;5.076;2023-04-21T09:30:07;100804.50;;;9.37;70.29
60974;BME280;46846;51.528;5.076;2023-04-21T09:32:36;100798.28;;;9.38;70.65
60974;BME280;46846;51.528;5.076;2023-04-21T09:35:02;100809.59;;;9.44;70.58
60974;BME280;46846;51.528;5.076;2023-04-21T09:37:27;100793.47;;;9.51;70.61
60974;BME280;46846;51.528;5.076;2023-04-21T09:39:56;100795.00;;;9.58;69.55
60974;BME280;46846;51.528;5.076;2023-04-21T09:42:27;100793.97;;;9.64;69.13
60974;BME280;46846;51.528;5.076;2023-04-21T09:44:52;100796.38;;;9.71;67.44
60974;BME280;46846;51.528;5.076;2023-04-21T09:47:17;100791.75;;;9.78;69.75
60974;BME280;46846;51.528;5.076;2023-04-21T09:49:43;100788.00;;;9.84;70.11
60974;BME280;46846;51.528;5.076;2023-04-21T09:52:09;100785.25;;;9.87;69.29
60974;BME280;46846;51.528;5.076;2023-04-21T09:54:38;100782.47;;;9.92;68.68
60974;BME280;46846;51.528;5.076;2023-04-21T09:57:07;100783.16;;;9.97;68.75
60974;BME280;46846;51.528;5.076;2023-04-21T09:59:36;100785.56;;;10.05;68.29
60974;BME280;46846;51.528;5.076;2023-04-21T10:02:05;100778.28;;;10.10;69.96
60974;BME280;46846;51.528;5.076;2023-04-21T10:04:30;100780.88;;;10.13;69.33
60974;BME280;46846;51.528;5.076;2023-04-21T10:06:58;100777.28;;;10.14;67.78
60974;BME280;46846;51.528;5.076;2023-04-21T10:09:24;100768.28;;;10.18;66.87
60974;BME280;46846;51.528;5.076;2023-04-21T10:11:51;100771.72;;;10.22;68.18
60974;BME280;46846;51.528;5.076;2023-04-21T10:14:17;100767.91;;;10.29;69.59
60974;BME280;46846;51.528;5.076;2023-04-21T10:16:43;100758.03;;;10.33;68.95
60974;BME280;46846;51.528;5.076;2023-04-21T10:19:24;100759.72;;;10.35;65.58
60974;BME280;46846;51.528;5.076;2023-04-21T10:21:49;100755.09;;;10.42;67.22
60974;BME280;46846;51.528;5.076;2023-04-21T10:24:15;100753.97;;;10.49;69.82
60974;BME280;46846;51.528;5.076;2023-04-21T10:26:40;100748.47;;;10.54;69.15
60974;BME280;46846;51.528;5.076;2023-04-21T10:29:06;100750.97;;;10.59;70.17
60974;BME280;46846;51.528;5.076;2023-04-21T10:31:32;100742.94;;;10.60;69.69
60974;BME280;46846;51.528;5.076;2023-04-21T10:36:33;100739.03;;;10.69;69.41
60974;BME280;46846;51.528;5.076;2023-04-21T10:39:01;100728.22;;;10.74;68.90
60974;BME280;46846;51.528;5.076;2023-04-21T10:41:31;100723.78;;;10.74;67.10
60974;BME280;46846;51.528;5.076;2023-04-21T10:43:57;100722.63;;;10.82;69.30
60974;BME280;46846;51.528;5.076;2023-04-21T10:46:36;100726.94;;;10.86;67.65
60974;BME280;46846;51.528;5.076;2023-04-21T10:49:08;100722.28;;;10.91;67.15
60974;BME280;46846;51.528;5.076;2023-04-21T10:54:20;100708.75;;;10.97;61.97
60974;BME280;46846;51.528;5.076;2023-04-21T10:56:45;100714.59;;;11.07;68.21
60974;BME280;46846;51.528;5.076;2023-04-21T10:59:11;100705.66;;;11.08;65.49
60974;BME280;46846;51.528;5.076;2023-04-21T11:01:38;100705.53;;;11.11;65.80
60974;BME280;46846;51.528;5.076;2023-04-21T11:04:03;100702.59;;;11.19;65.73
60974;BME280;46846;51.528;5.076;2023-04-21T11:06:30;100709.53;;;11.23;66.51
60974;BME280;46846;51.528;5.076;2023-04-21T11:08:56;100704.09;;;11.26;66.66
60974;BME280;46846;51.528;5.076;2023-04-21T11:11:22;100700.25;;;11.33;66.17
60974;BME280;46846;51.528;5.076;2023-04-21T11:13:48;100693.06;;;11.35;66.43
60974;BME280;46846;51.528;5.076;2023-04-21T11:16:13;100703.59;;;11.39;66.55
60974;BME280;46846;51.528;5.076;2023-04-21T11:18:39;100694.53;;;11.43;65.03
60974;BME280;46846;51.528;5.076;2023-04-21T11:21:08;100688.03;;;11.50;68.23
60974;BME280;46846;51.528;5.076;2023-04-21T11:23:34;100679.09;;;11.51;68.57
60974;BME280;46846;51.528;5.076;2023-04-21T11:25:59;100679.09;;;11.51;62.82
60974;BME280;46846;51.528;5.076;2023-04-21T11:28:24;100677.91;;;11.58;67.32
60974;BME280;46846;51.528;5.076;2023-04-21T11:30:50;100675.00;;;11.65;68.47
60974;BME280;46846;51.528;5.076;2023-04-21T11:33:15;100659.06;;;11.63;61.64
60974;BME280;46846;51.528;5.076;2023-04-21T11:35:40;100658.75;;;11.71;65.47
60974;BME280;46846;51.528;5.076;2023-04-21T11:38:06;100655.91;;;11.75;66.82
60974;BME280;46846;51.528;5.076;2023-04-21T11:40:43;100645.03;;;11.80;64.95
60974;BME280;46846;51.528;5.076;2023-04-21T11:43:08;100647.59;;;11.83;66.45
60974;BME280;46846;51.528;5.076;2023-04-21T11:45:34;100652.84;;;11.85;66.19
60974;BME280;46846;51.528;5.076;2023-04-21T11:48:14;100636.84;;;11.85;60.90
60974;BME280;46846;51.528;5.076;2023-04-21T11:50:43;100631.38;;;11.88;62.24
60974;BME280;46846;51.528;5.076;2023-04-21T11:53:10;100637.31;;;11.95;64.72
60974;BME280;46846;51.528;5.076;2023-04-21T11:55:40;100632.66;;;12.00;64.57
60974;BME280;46846;51.528;5.076;2023-04-21T11:58:05;100634.44;;;11.99;62.67
60974;BME280;46846;51.528;5.076;2023-04-21T12:00:31;100633.22;;;12.08;65.79
60974;BME280;46846;51.528;5.076;2023-04-21T12:02:56;100621.66;;;12.08;58.71
60974;BME280;46846;51.528;5.076;2023-04-21T12:05:22;100624.00;;;12.15;63.49
60974;BME280;46846;51.528;5.076;2023-04-21T12:07:48;100621.34;;;12.15;59.95
60974;BME280;46846;51.528;5.076;2023-04-21T12:10:15;100624.59;;;12.22;60.53
60974;BME280;46846;51.528;5.076;2023-04-21T12:12:41;100626.97;;;12.28;65.37
60974;BME280;46846;51.528;5.076;2023-04-21T12:15:07;100617.09;;;12.30;58.62
60974;BME280;46846;51.528;5.076;2023-04-21T12:17:36;100622.25;;;12.35;63.98
60974;BME280;46846;51.528;5.076;2023-04-21T12:20:05;100621.16;;;12.39;63.37
60974;BME280;46846;51.528;5.076;2023-04-21T12:22:31;100604.00;;;12.45;59.67
60974;BME280;46846;51.528;5.076;2023-04-21T12:24:57;100606.44;;;12.50;62.14
60974;BME280;46846;51.528;5.076;2023-04-21T12:27:22;100602.78;;;12.52;59.87
60974;BME280;46846;51.528;5.076;2023-04-21T12:29:47;100604.44;;;12.55;63.87
60974;BME280;46846;51.528;5.076;2023-04-21T12:32:12;100598.09;;;12.57;63.87
60974;BME280;46846;51.528;5.076;2023-04-21T12:34:38;100593.47;;;12.61;65.85
60974;BME280;46846;51.528;5.076;2023-04-21T12:37:03;100598.97;;;12.58;65.09
60974;BME280;46846;51.528;5.076;2023-04-21T12:39:28;100600.53;;;12.62;65.28
60974;BME280;46846;51.528;5.076;2023-04-21T12:41:54;100598.66;;;12.64;63.52
60974;BME280;46846;51.528;5.076;2023-04-21T12:44:19;100604.81;;;12.66;65.24
60974;BME280;46846;51.528;5.076;2023-04-21T12:46:45;100601.16;;;12.69;64.64
60974;BME280;46846;51.528;5.076;2023-04-21T12:49:12;100595.56;;;12.74;65.57
60974;BME280;46846;51.528;5.076;2023-04-21T12:51:39;100591.69;;;12.81;63.72
60974;BME280;46846;51.528;5.076;2023-04-21T12:54:05;100587.63;;;12.91;63.43
60974;BME280;46846;51.528;5.076;2023-04-21T12:56:30;100590.13;;;12.94;59.63